Notice: Undefined index: language in D:\xampp\htdocs\vam\index.php on line 25
Open Air Virtual

 METAR AND TAF INFORMATION
METAR FOR EGBB
ADDS - METARS form results

(1212 UTC 20 August 2019)
Data provider http://aviationweather.gov/metar/data/
 
METAR text: EGBB 201150Z 27010KT 230V310 9999 SCT040 18/05 Q1022
Conditions at: EGBB (BIRMINGHAM AIRPO, GB) observed 1150 UTC 20 August 2019
Temperature: 18.0°C (64°F)
Dewpoint: 5.0°C (41°F) [RH = 42%]
Pressure (altimeter): 30.18 inches Hg (1022.0 mb)
Winds: from the W (270 degrees) at 12 MPH (10 knots; 5.1 m/s)
Visibility: 6 or more miles (10+ km)
Ceiling: at least 12,000 feet AGL
Clouds: scattered clouds at 4000 feet AGL
Weather: no significant weather observed at this time

METAR text: EGBB 201120Z 28010KT 240V320 9999 SCT040 17/06 Q1022
Conditions at: EGBB (BIRMINGHAM AIRPO, GB) observed 1120 UTC 20 August 2019
Temperature: 17.0°C (63°F)
Dewpoint: 6.0°C (43°F) [RH = 48%]
Pressure (altimeter): 30.18 inches Hg (1022.0 mb)
Winds: from the W (280 degrees) at 12 MPH (10 knots; 5.1 m/s)
Visibility: 6 or more miles (10+ km)
Ceiling: at least 12,000 feet AGL
Clouds: scattered clouds at 4000 feet AGL
Weather: no significant weather observed at this time

Forecast for: EGBB (BIRMINGHAM AIRPO, GB)
Text: TAF EGBB 201057Z 2012/2112 28008KT 9999 SCT035
Forecast period: 1200 UTC 20 August 2019 to 0000 UTC 21 August 2019
Forecast type: FROM: standard forecast or significant change
Winds: from the W (280 degrees) at 9 MPH (8 knots; 4.1 m/s)
Visibility: 6 or more miles 10+ km)
Ceiling: at least 12,000 feet AGL
Clouds: scattered clouds at 3500 feet AGL
Weather: no significant weather forecast for this period
Text: PROB30
Forecast period: 1900 UTC 20 August 2019 to 0000 UTC 21 August 2019
Forecast type: TEMPORARY: The following changes expected for less than half the time period
Visibility: 6 miles (9 km)
Ceiling: unknown
Clouds: missing
Weather: -SHRA  (light rain showers)
Text: TEMPO 2019/2024 9000 -SHRA
Forecast period: 0000 to 1200 UTC 21 August 2019
Forecast type: BECOMING: Conditions expected to become as follows by 0300 UTC 21 August 2019
Winds: from the SSW (210 degrees) at 12 MPH (10 knots; 5.1 m/s)
Visibility: 6 or more miles 10+ km)
Ceiling: at least 12,000 feet AGL
Clouds: scattered clouds at 3500 feet AGL
Weather: no significant weather forecast for this period

 AIRPORT MAP

 RUNWAY INFORMATION
Runway 15 Runway length 8527 ft Runway width 151 ft
Runway elevation 305 ft Runway displaced threshold 1069 ft Runway heading 148
Runway 33 Runway length 8527 ft Runway width 151 ft
Runway elevation 328 ft Runway displaced threshold 987 ft Runway heading 328

 AIRPORT FREQUENCIES
Type APP Name APP Frequency 118.05 MHZ
Type ATIS Name ATIS Frequency 136.02 MHZ
Type GND Name GND Frequency 121.8 MHZ
Type TWR Name TWR Frequency 118.3 MHZ

 AIRPORT NEAR NAVIGATION AIDS
Type NDB Name Birmingham Frequency 406 KHZ



Powered by Virtual Airlines Manager [v2.6.2]